Time;durP1;ratioP1;P1;durP2;ratioP2;P2;SDS_P1;SDS_P2;PMS_P1;PMS_P2;Temp;Humidity;BMP_temperature;BMP_pressure;BME280_temperature;BME280_humidity;BME280_pressure;Samples;Min_cycle;Max_cycle;Signal;HPM_P1;HPM_P2
2022/07/13 00:01:25;;;;;;;9.18;6.90;;;20.50;99.90;;;;;;4970517;28;20042;-91
2022/07/13 00:03:51;;;;;;;9.20;7.65;;;20.50;99.90;;;;;;4968348;28;20081;-90
2022/07/13 00:06:18;;;;;;;9.38;5.93;;;20.40;99.90;;;;;;4970125;28;20399;-91
2022/07/13 00:08:44;;;;;;;7.95;6.07;;;20.40;99.90;;;;;;4969014;28;20125;-92
2022/07/13 00:11:10;;;;;;;9.90;6.40;;;20.40;99.90;;;;;;4969406;28;20408;-91
2022/07/13 00:13:36;;;;;;;9.20;6.43;;;20.40;99.90;;;;;;4969861;28;20360;-92
2022/07/13 00:16:02;;;;;;;12.55;6.43;;;20.40;99.90;;;;;;4967668;28;20138;-91
2022/07/13 00:18:27;;;;;;;8.88;7.93;;;20.40;99.90;;;;;;4948844;28;20396;-91
2022/07/13 00:20:53;;;;;;;9.82;8.82;;;20.50;99.90;;;;;;4950933;28;20488;-91
2022/07/13 00:23:19;;;;;;;10.57;7.97;;;20.40;99.90;;;;;;4968627;28;20089;-92
2022/07/13 00:25:45;;;;;;;10.68;9.00;;;20.50;99.90;;;;;;4970227;28;20126;-92
2022/07/13 00:28:10;;;;;;;10.45;9.27;;;20.40;99.90;;;;;;4968081;28;20519;-91
2022/07/13 00:30:36;;;;;;;11.35;10.02;;;20.40;99.90;;;;;;4969560;28;20047;-92
2022/07/13 00:33:02;;;;;;;10.98;9.77;;;20.40;99.90;;;;;;4967659;28;20349;-92
2022/07/13 00:35:28;;;;;;;10.18;9.07;;;20.50;99.90;;;;;;4953841;28;20038;-92
2022/07/13 00:37:53;;;;;;;11.25;10.13;;;20.50;99.90;;;;;;4952106;28;20039;-93
2022/07/13 00:40:19;;;;;;;13.15;9.70;;;20.50;99.90;;;;;;4952656;28;20057;-92
2022/07/13 00:42:44;;;;;;;11.32;9.45;;;20.50;99.90;;;;;;4969573;28;20057;-91
2022/07/13 00:45:10;;;;;;;10.43;9.32;;;20.50;99.90;;;;;;4972715;28;20133;-92
2022/07/13 00:47:37;;;;;;;10.80;9.52;;;20.50;99.90;;;;;;4956062;28;20079;-92
2022/07/13 00:50:06;;;;;;;10.13;8.57;;;20.50;99.90;;;;;;4973572;28;20054;-93
2022/07/13 00:52:37;;;;;;;9.45;8.02;;;20.50;99.90;;;;;;4974235;28;20046;-91
2022/07/13 00:55:05;;;;;;;11.18;9.60;;;20.50;99.90;;;;;;4972337;28;20352;-92
2022/07/13 00:57:34;;;;;;;11.55;9.38;;;20.50;99.90;;;;;;4957272;28;20066;-92
2022/07/13 01:00:01;;;;;;;10.75;9.43;;;20.50;99.90;;;;;;4972134;28;20105;-91
2022/07/13 01:02:26;;;;;;;10.40;8.98;;;20.40;99.90;;;;;;4956668;28;20066;-91
2022/07/13 01:04:52;;;;;;;11.20;9.05;;;20.50;99.90;;;;;;4972561;28;20385;-91
2022/07/13 01:07:18;;;;;;;11.02;9.63;;;20.50;99.90;;;;;;4973182;28;20085;-91
2022/07/13 01:09:43;;;;;;;11.45;9.75;;;20.40;99.90;;;;;;4972660;28;20050;-91
2022/07/13 01:12:09;;;;;;;10.55;8.73;;;20.40;99.90;;;;;;4973028;28;20459;-92
2022/07/13 01:14:36;;;;;;;10.52;8.55;;;20.40;99.90;;;;;;4972426;28;20086;-91
2022/07/13 01:17:02;;;;;;;10.20;8.20;;;20.40;99.90;;;;;;4972452;28;20042;-92
2022/07/13 01:19:28;;;;;;;9.93;8.45;;;20.40;99.90;;;;;;4974196;28;20046;-92
2022/07/13 01:22:00;;;;;;;9.88;8.27;;;20.40;99.90;;;;;;4971607;28;20511;-91
2022/07/13 01:24:29;;;;;;;10.38;8.52;;;20.40;99.90;;;;;;4972812;28;20089;-91
2022/07/13 01:26:55;;;;;;;10.93;7.50;;;20.30;99.90;;;;;;4973223;28;20042;-92
2022/07/13 01:29:21;;;;;;;10.27;8.63;;;20.30;99.90;;;;;;4972214;28;20043;-91
2022/07/13 01:31:46;;;;;;;10.85;9.73;;;20.30;99.90;;;;;;4972415;28;20046;-91
2022/07/13 01:34:12;;;;;;;11.73;9.00;;;20.20;99.90;;;;;;4971884;28;20122;-91
2022/07/13 01:36:40;;;;;;;12.02;8.90;;;20.30;99.90;;;;;;4971181;28;20484;-91
2022/07/13 01:39:06;;;;;;;11.07;9.75;;;20.40;99.90;;;;;;4969541;28;20403;-92
2022/07/13 01:41:32;;;;;;;11.10;9.25;;;20.30;99.90;;;;;;4972463;28;20043;-93
2022/07/13 01:43:58;;;;;;;10.55;8.75;;;20.30;99.90;;;;;;4971015;28;20038;-92
2022/07/13 01:46:24;;;;;;;11.18;9.38;;;20.30;99.90;;;;;;4972055;28;20527;-92
2022/07/13 01:48:51;;;;;;;11.68;8.98;;;20.30;99.90;;;;;;4970931;28;20051;-92
2022/07/13 01:51:16;;;;;;;11.88;9.27;;;20.30;99.90;;;;;;4970901;28;20551;-92
2022/07/13 01:53:42;;;;;;;10.75;9.60;;;20.30;99.90;;;;;;4969340;28;20142;-92
2022/07/13 01:56:07;;;;;;;10.82;9.63;;;20.20;99.90;;;;;;4972590;28;20388;-91
2022/07/13 01:58:33;;;;;;;10.98;9.40;;;20.30;99.90;;;;;;4955823;28;20039;-91
2022/07/13 02:00:59;;;;;;;12.75;9.30;;;20.30;99.90;;;;;;4970905;28;20086;-91
2022/07/13 02:03:27;;;;;;;11.20;9.25;;;20.30;99.90;;;;;;4971313;28;20397;-92
2022/07/13 02:05:53;;;;;;;11.00;9.40;;;20.30;99.90;;;;;;4970843;28;20043;-92
2022/07/13 02:08:18;;;;;;;11.18;9.35;;;20.30;99.90;;;;;;4971482;28;20041;-91
2022/07/13 02:10:44;;;;;;;10.35;9.25;;;20.30;99.90;;;;;;4972735;28;20109;-91
2022/07/13 02:13:14;;;;;;;12.27;8.65;;;20.30;99.90;;;;;;4955074;28;20043;-93
2022/07/13 02:15:40;;;;;;;11.38;9.65;;;20.30;99.90;;;;;;4971359;28;20050;-92
2022/07/13 02:18:06;;;;;;;10.85;9.27;;;20.30;99.90;;;;;;4970340;28;20050;-92
2022/07/13 02:20:33;;;;;;;10.60;9.18;;;20.30;99.90;;;;;;4971072;28;20046;-92
2022/07/13 02:22:58;;;;;;;12.00;8.98;;;20.30;99.90;;;;;;4970476;28;20046;-92
2022/07/13 02:25:24;;;;;;;10.98;8.93;;;20.30;99.90;;;;;;4971484;28;20058;-91
2022/07/13 02:27:50;;;;;;;12.25;9.77;;;20.30;99.90;;;;;;4970332;28;20039;-91
2022/07/13 02:30:16;;;;;;;11.88;9.88;;;20.20;99.90;;;;;;4955508;28;20535;-92
2022/07/13 02:32:44;;;;;;;11.18;9.93;;;20.20;99.90;;;;;;4970667;28;20053;-92
2022/07/13 02:35:12;;;;;;;11.63;10.30;;;20.30;99.90;;;;;;4970597;28;20074;-92
2022/07/13 02:37:38;;;;;;;11.65;9.63;;;20.20;99.90;;;;;;4970814;28;20046;-93
2022/07/13 02:40:05;;;;;;;11.27;9.63;;;20.10;99.90;;;;;;4970910;28;20050;-92
2022/07/13 02:42:31;;;;;;;13.25;10.45;;;20.20;99.90;;;;;;4971336;28;20043;-92
2022/07/13 02:44:57;;;;;;;12.07;10.48;;;20.20;99.90;;;;;;4970110;28;20435;-91
2022/07/13 02:47:23;;;;;;;12.05;10.00;;;20.20;99.90;;;;;;4954083;28;20039;-91
2022/07/13 02:49:49;;;;;;;12.75;10.18;;;20.20;99.90;;;;;;4971531;28;20058;-92
2022/07/13 02:52:15;;;;;;;12.43;10.60;;;20.20;99.90;;;;;;4969531;28;20451;-91
2022/07/13 02:54:41;;;;;;;12.73;11.00;;;20.20;99.90;;;;;;4953224;28;20085;-91
2022/07/13 02:57:06;;;;;;;13.13;11.23;;;20.20;99.90;;;;;;4954308;28;20042;-93
2022/07/13 02:59:33;;;;;;;12.52;10.77;;;20.20;99.90;;;;;;4971212;28;20130;-93
2022/07/13 03:01:59;;;;;;;12.38;10.45;;;20.20;99.90;;;;;;4969434;28;20077;-92
2022/07/13 03:04:25;;;;;;;13.07;11.15;;;20.30;99.90;;;;;;4954234;28;20496;-92
2022/07/13 03:06:51;;;;;;;13.13;11.30;;;20.20;99.90;;;;;;4968097;28;20134;-92
2022/07/13 03:09:16;;;;;;;12.48;10.30;;;20.20;99.90;;;;;;4969943;28;20106;-92
2022/07/13 03:11:42;;;;;;;12.73;9.95;;;20.20;99.90;;;;;;4970632;28;20098;-93
2022/07/13 03:14:08;;;;;;;13.07;11.68;;;20.20;99.90;;;;;;4971187;28;20129;-91
2022/07/13 03:16:34;;;;;;;14.02;11.05;;;20.20;99.90;;;;;;4969265;28;20126;-92
2022/07/13 03:19:00;;;;;;;13.80;10.73;;;20.20;99.90;;;;;;4970910;28;20459;-92
2022/07/13 03:21:27;;;;;;;12.70;11.40;;;20.20;99.90;;;;;;4969699;28;20043;-92
2022/07/13 03:23:53;;;;;;;13.10;11.27;;;20.20;99.90;;;;;;4941181;28;20039;-92
2022/07/13 03:26:19;;;;;;;13.25;11.52;;;20.20;99.90;;;;;;4955310;28;20046;-92
2022/07/13 03:28:45;;;;;;;13.25;11.02;;;20.20;99.90;;;;;;4969550;28;20085;-91
2022/07/13 03:31:11;;;;;;;12.30;10.35;;;20.30;99.90;;;;;;4969441;28;20043;-91
2022/07/13 03:33:36;;;;;;;13.30;11.07;;;20.30;99.90;;;;;;4969947;28;20046;-92
2022/07/13 03:36:02;;;;;;;12.63;11.15;;;20.20;99.90;;;;;;4950941;28;20081;-91
2022/07/13 03:38:28;;;;;;;12.27;10.80;;;20.20;99.90;;;;;;4971452;28;20499;-92
2022/07/13 03:40:54;;;;;;;12.30;10.98;;;20.30;99.90;;;;;;4970551;28;20042;-91
2022/07/13 03:43:20;;;;;;;12.15;10.27;;;20.20;99.90;;;;;;4969589;28;20158;-92
2022/07/13 03:45:45;;;;;;;11.30;9.65;;;20.30;99.90;;;;;;4953260;28;20046;-91
2022/07/13 03:48:13;;;;;;;12.07;10.23;;;20.30;99.90;;;;;;4969966;28;20047;-94
2022/07/13 03:50:39;;;;;;;11.52;9.65;;;20.30;99.90;;;;;;4952298;28;20054;-92
2022/07/13 03:53:05;;;;;;;12.60;10.05;;;20.30;99.90;;;;;;4967341;28;20496;-92
2022/07/13 03:55:30;;;;;;;12.10;10.20;;;20.30;99.90;;;;;;4970921;28;20054;-91
2022/07/13 03:57:56;;;;;;;11.77;10.40;;;20.30;99.90;;;;;;4968784;28;20051;-91
2022/07/13 04:00:21;;;;;;;11.15;9.77;;;20.30;99.90;;;;;;4969996;28;20134;-92
2022/07/13 04:02:47;;;;;;;13.05;10.60;;;20.30;99.90;;;;;;4970290;28;20101;-92
2022/07/13 04:05:13;;;;;;;12.20;10.25;;;20.30;99.90;;;;;;4952224;28;20133;-92
2022/07/13 04:07:38;;;;;;;12.27;10.23;;;20.40;99.90;;;;;;4968292;28;20046;-92
2022/07/13 04:10:04;;;;;;;12.98;10.38;;;20.40;99.90;;;;;;4968535;28;20470;-92
2022/07/13 04:12:30;;;;;;;12.02;9.80;;;20.40;99.90;;;;;;4969808;28;20047;-92
2022/07/13 04:14:55;;;;;;;11.30;9.65;;;20.30;99.90;;;;;;4968766;28;20141;-93
2022/07/13 04:17:21;;;;;;;10.02;8.75;;;20.40;99.90;;;;;;4955586;28;20042;-93
2022/07/13 04:19:46;;;;;;;10.55;9.25;;;20.30;99.90;;;;;;4972573;28;20058;-92
2022/07/13 04:22:12;;;;;;;11.00;9.52;;;20.40;99.90;;;;;;4972632;28;20053;-91
2022/07/13 04:24:37;;;;;;;11.07;9.35;;;20.40;99.90;;;;;;4974185;28;20046;-92
2022/07/13 04:27:03;;;;;;;11.77;9.50;;;20.30;99.90;;;;;;4956557;28;20129;-91
2022/07/13 04:29:29;;;;;;;11.02;9.15;;;20.40;99.90;;;;;;4973728;28;20043;-92
2022/07/13 04:31:54;;;;;;;11.68;8.98;;;20.40;99.90;;;;;;4972138;28;20038;-92
2022/07/13 04:34:20;;;;;;;12.57;8.68;;;20.40;99.90;;;;;;4973886;28;20540;-92
2022/07/13 04:36:45;;;;;;;10.88;9.07;;;20.40;99.90;;;;;;4970904;28;20558;-92
2022/07/13 04:39:12;;;;;;;10.98;9.00;;;20.40;99.90;;;;;;4973037;28;20038;-93
2022/07/13 04:41:38;;;;;;;11.52;9.23;;;20.40;99.90;;;;;;4973803;28;20474;-92
2022/07/13 04:44:04;;;;;;;11.75;9.10;;;20.40;99.90;;;;;;4972382;28;20419;-91
2022/07/13 04:46:29;;;;;;;10.73;9.02;;;20.40;99.90;;;;;;4973339;28;20054;-92
2022/07/13 04:48:55;;;;;;;11.68;8.90;;;20.40;99.90;;;;;;4971762;28;20043;-91
2022/07/13 04:51:20;;;;;;;11.10;9.15;;;20.40;99.90;;;;;;4971447;28;20049;-91
2022/07/13 04:53:46;;;;;;;10.43;8.65;;;20.40;99.90;;;;;;4973767;28;20049;-92
2022/07/13 04:56:12;;;;;;;10.80;8.85;;;20.60;99.90;;;;;;4972572;28;20070;-91
2022/07/13 04:58:38;;;;;;;11.85;8.68;;;20.50;99.90;;;;;;4957278;28;20474;-91
2022/07/13 05:01:07;;;;;;;11.75;8.15;;;20.50;99.90;;;;;;4970711;28;20161;-91
2022/07/13 05:03:33;;;;;;;10.20;7.95;;;20.60;99.90;;;;;;4972553;28;20047;-93
2022/07/13 05:05:59;;;;;;;10.05;8.30;;;20.60;99.90;;;;;;4968942;28;20049;-92
2022/07/13 05:08:25;;;;;;;10.32;7.85;;;20.60;99.90;;;;;;4974155;28;20254;-92
2022/07/13 05:10:51;;;;;;;10.60;8.13;;;20.60;99.90;;;;;;4971836;28;20111;-92
2022/07/13 05:13:17;;;;;;;9.57;7.78;;;20.60;99.90;;;;;;4974098;28;20110;-91
2022/07/13 05:15:42;;;;;;;11.68;8.07;;;20.60;99.90;;;;;;4972049;28;20050;-92
2022/07/13 05:18:08;;;;;;;10.23;8.05;;;20.80;99.90;;;;;;4972315;28;20046;-90
2022/07/13 05:20:33;;;;;;;10.10;7.50;;;20.70;99.90;;;;;;4954740;28;20546;-91
2022/07/13 05:22:59;;;;;;;10.35;7.38;;;20.80;99.90;;;;;;4971962;28;20039;-89
2022/07/13 05:25:25;;;;;;;10.88;8.30;;;20.80;99.90;;;;;;4971155;28;20039;-94
2022/07/13 05:27:50;;;;;;;11.63;7.60;;;20.80;99.90;;;;;;4955623;28;20496;-93
2022/07/13 05:30:16;;;;;;;9.77;7.10;;;20.90;99.90;;;;;;4955370;28;20042;-95
2022/07/13 05:32:41;;;;;;;9.68;7.20;;;20.90;99.90;;;;;;4972923;28;20128;-94
2022/07/13 05:35:07;;;;;;;9.50;7.22;;;20.90;99.90;;;;;;4969767;28;20047;-93
2022/07/13 05:37:33;;;;;;;9.48;7.28;;;21.00;99.90;;;;;;4972290;28;20054;-92
2022/07/13 05:39:59;;;;;;;10.80;7.47;;;21.00;99.90;;;;;;4972392;28;20070;-92
2022/07/13 05:42:26;;;;;;;10.48;7.10;;;21.10;99.90;;;;;;4972367;28;20061;-92
2022/07/13 05:44:51;;;;;;;9.80;7.50;;;21.20;99.90;;;;;;4969901;28;20039;-92
2022/07/13 05:47:17;;;;;;;9.82;7.65;;;21.20;99.90;;;;;;4973417;28;20125;-92
2022/07/13 05:49:43;;;;;;;10.23;7.70;;;21.30;99.90;;;;;;4973278;28;20118;-93
2022/07/13 05:52:08;;;;;;;10.52;7.05;;;21.30;99.90;;;;;;4969633;28;20039;-89
2022/07/13 05:54:35;;;;;;;9.55;7.05;;;21.40;99.90;;;;;;4969740;28;20073;-90
2022/07/13 05:57:01;;;;;;;9.13;6.72;;;21.50;99.90;;;;;;4966772;28;20456;-89
2022/07/13 05:59:27;;;;;;;10.68;7.20;;;21.50;99.90;;;;;;4968145;28;20046;-89
2022/07/13 06:01:53;;;;;;;8.73;6.53;;;21.60;99.90;;;;;;4949576;28;20043;-88
2022/07/13 06:04:19;;;;;;;9.88;6.72;;;21.70;99.90;;;;;;4968557;28;20117;-88
2022/07/13 06:06:45;;;;;;;9.27;6.25;;;21.70;99.90;;;;;;4970444;28;20064;-90
2022/07/13 06:09:11;;;;;;;8.63;6.15;;;21.80;99.90;;;;;;4954248;28;20046;-89
2022/07/13 06:11:37;;;;;;;9.68;6.07;;;21.80;99.90;;;;;;4970716;28;20077;-91
2022/07/13 06:14:03;;;;;;;9.75;5.82;;;21.90;99.90;;;;;;4952288;28;20129;-88
2022/07/13 06:16:29;;;;;;;8.73;5.30;;;21.90;99.90;;;;;;4970142;28;20193;-89
2022/07/13 06:18:55;;;;;;;10.38;5.60;;;22.00;99.90;;;;;;4969312;28;20039;-88
2022/07/13 06:21:20;;;;;;;8.13;4.53;;;22.00;99.90;;;;;;4951972;28;20047;-88
2022/07/13 06:23:46;;;;;;;8.85;5.28;;;22.10;99.90;;;;;;4971097;28;20039;-89
2022/07/13 06:26:11;;;;;;;8.32;4.80;;;22.10;99.90;;;;;;4970440;28;20066;-90
2022/07/13 06:28:37;;;;;;;7.70;4.80;;;22.10;99.90;;;;;;4952901;28;20411;-89
2022/07/13 06:31:02;;;;;;;7.63;4.22;;;22.20;99.90;;;;;;4970642;28;20533;-88
2022/07/13 06:33:28;;;;;;;7.85;5.00;;;22.30;99.90;;;;;;4969386;28;20039;-88
2022/07/13 06:35:53;;;;;;;7.20;4.50;;;22.30;99.90;;;;;;4969321;28;20046;-88
2022/07/13 06:38:19;;;;;;;8.43;4.45;;;22.30;99.90;;;;;;4970546;28;20068;-90
2022/07/13 06:40:47;;;;;;;6.72;4.05;;;22.30;99.90;;;;;;4969613;28;20475;-88
2022/07/13 06:43:13;;;;;;;7.82;4.82;;;22.30;99.90;;;;;;4969133;28;20054;-87
2022/07/13 06:45:39;;;;;;;7.28;5.00;;;22.30;99.90;;;;;;4954692;28;20043;-89
2022/07/13 06:48:05;;;;;;;7.38;4.80;;;22.40;99.90;;;;;;4965763;28;20060;-87
2022/07/13 06:50:31;;;;;;;7.35;4.70;;;22.50;99.90;;;;;;4968402;28;20062;-88
2022/07/13 06:52:56;;;;;;;8.88;4.45;;;22.60;99.90;;;;;;4968276;28;20097;-86
2022/07/13 06:55:22;;;;;;;7.15;4.18;;;22.70;99.90;;;;;;4953752;28;20408;-87
2022/07/13 06:57:47;;;;;;;7.15;4.47;;;22.80;99.90;;;;;;4968573;28;20117;-87
2022/07/13 07:00:13;;;;;;;7.65;4.82;;;22.90;99.90;;;;;;4969966;28;20043;-87
2022/07/13 07:02:39;;;;;;;8.30;5.43;;;23.00;99.90;;;;;;4970104;28;20039;-86
2022/07/13 07:05:09;;;;;;;8.25;5.07;;;23.20;99.90;;;;;;4968750;28;20097;-86
2022/07/13 07:07:35;;;;;;;9.05;5.57;;;23.30;99.90;;;;;;4968565;28;20089;-87
2022/07/13 07:10:00;;;;;;;9.18;5.53;;;23.40;99.90;;;;;;4953296;28;20457;-86
2022/07/13 07:12:26;;;;;;;9.85;5.60;;;23.60;99.90;;;;;;4970742;28;20102;-86
2022/07/13 07:14:51;;;;;;;8.45;5.53;;;23.70;99.90;;;;;;4969042;28;20412;-87
2022/07/13 07:17:17;;;;;;;9.98;5.47;;;23.80;99.90;;;;;;4971653;28;20038;-88
2022/07/13 07:19:44;;;;;;;10.82;7.72;;;23.80;99.90;;;;;;4969790;28;20046;-87
2022/07/13 07:22:10;;;;;;;10.38;7.68;;;23.80;99.90;;;;;;4966617;28;20047;-88
2022/07/13 07:24:36;;;;;;;11.90;7.13;;;23.70;99.90;;;;;;4971209;28;20488;-88
2022/07/13 07:27:02;;;;;;;11.10;8.30;;;23.60;99.90;;;;;;4954002;28;20053;-90
2022/07/13 07:29:28;;;;;;;9.88;7.35;;;23.50;99.90;;;;;;4970133;28;20488;-92
2022/07/13 07:31:53;;;;;;;10.88;7.10;;;23.50;99.90;;;;;;4967138;28;20451;-91
2022/07/13 07:34:19;;;;;;;10.20;6.55;;;23.40;99.90;;;;;;4952905;28;20440;-91
2022/07/13 07:36:44;;;;;;;12.32;8.05;;;23.40;99.90;;;;;;4968121;28;20412;-90
2022/07/13 07:39:12;;;;;;;11.20;7.75;;;23.40;99.90;;;;;;4969595;28;20043;-90
2022/07/13 07:41:38;;;;;;;12.57;8.18;;;23.50;99.90;;;;;;4966817;28;20396;-91
2022/07/13 07:44:03;;;;;;;9.73;7.70;;;23.50;99.90;;;;;;4951647;28;20055;-90
2022/07/13 07:46:29;;;;;;;11.88;8.25;;;23.50;99.90;;;;;;4968423;28;20043;-91
2022/07/13 07:48:56;;;;;;;10.38;7.90;;;23.50;99.90;;;;;;4964926;28;20046;-91
2022/07/13 07:51:21;;;;;;;10.15;8.10;;;23.60;99.90;;;;;;4967540;28;20039;-92
2022/07/13 07:53:47;;;;;;;11.27;8.60;;;23.60;99.90;;;;;;4967491;28;20055;-93
2022/07/13 07:56:13;;;;;;;12.65;9.63;;;23.70;99.90;;;;;;4953285;28;20105;-91
2022/07/13 07:58:38;;;;;;;11.68;9.43;;;23.70;99.90;;;;;;4969527;28;20054;-92
2022/07/13 08:01:04;;;;;;;11.95;9.35;;;23.60;99.90;;;;;;4973195;28;20864;-90
2022/07/13 08:03:30;;;;;;;13.43;9.65;;;23.70;99.90;;;;;;4970893;28;20081;-92
2022/07/13 08:05:57;;;;;;;12.10;9.40;;;23.70;99.90;;;;;;4966678;28;20141;-92
2022/07/13 08:08:23;;;;;;;12.23;9.00;;;23.80;99.90;;;;;;4976172;28;20042;-90
2022/07/13 08:10:48;;;;;;;12.65;9.77;;;23.90;99.90;;;;;;4965842;28;20122;-90
2022/07/13 08:13:14;;;;;;;11.68;8.73;;;24.00;99.90;;;;;;4981555;28;20532;-90
2022/07/13 08:15:40;;;;;;;11.20;8.18;;;24.10;99.90;;;;;;4974588;28;20055;-89
2022/07/13 08:18:05;;;;;;;12.23;8.68;;;24.20;99.90;;;;;;4960349;28;20038;-91
2022/07/13 08:20:31;;;;;;;10.88;8.65;;;24.20;99.90;;;;;;4969998;28;20035;-91
2022/07/13 08:22:56;;;;;;;12.73;8.20;;;24.20;99.90;;;;;;4961386;28;20051;-91
2022/07/13 08:25:23;;;;;;;11.55;9.07;;;24.20;99.90;;;;;;4963881;28;20053;-91
2022/07/13 08:27:49;;;;;;;13.13;9.32;;;24.20;99.90;;;;;;4966476;28;20097;-93
2022/07/13 08:30:15;;;;;;;11.60;9.13;;;24.20;99.90;;;;;;4979053;28;20094;-90
2022/07/13 08:32:41;;;;;;;10.70;8.02;;;24.20;99.90;;;;;;4970068;28;20086;-91
2022/07/13 08:40:41;;;;;;;10.95;8.52;;;24.30;99.90;;;;;;4970426;28;20054;-91
2022/07/13 08:43:07;;;;;;;11.95;8.15;;;24.40;99.90;;;;;;4980782;28;20448;-90
2022/07/13 08:45:33;;;;;;;11.30;8.23;;;24.50;99.90;;;;;;4969699;28;20038;-86
2022/07/13 08:48:00;;;;;;;12.13;9.40;;;24.50;99.90;;;;;;4969986;28;20046;-85
2022/07/13 08:50:31;;;;;;;12.00;9.15;;;24.50;99.90;;;;;;4984658;28;20090;-88
2022/07/13 08:52:58;;;;;;;11.45;9.20;;;24.60;99.90;;;;;;4965106;28;20050;-87
2022/07/13 08:55:25;;;;;;;9.90;8.10;;;24.60;99.90;;;;;;4966165;28;20451;-86
2022/07/13 08:57:51;;;;;;;11.45;9.23;;;24.70;99.90;;;;;;4967209;28;20394;-87
2022/07/13 09:00:21;;;;;;;12.23;8.60;;;24.70;99.90;;;;;;4967517;28;20122;-87
2022/07/13 09:02:49;;;;;;;10.95;9.07;;;24.70;99.90;;;;;;4965785;28;20051;-86
2022/07/13 09:05:19;;;;;;;11.68;8.95;;;24.70;99.90;;;;;;4970970;28;20088;-87
2022/07/13 09:08:05;;;;;;;10.95;7.82;;;24.70;99.90;;;;;;4973739;28;20043;-87
2022/07/13 09:10:31;;;;;;;10.90;8.65;;;24.80;99.90;;;;;;4969241;28;20050;-85
2022/07/13 09:12:57;;;;;;;11.32;7.85;;;24.80;99.90;;;;;;4969314;28;20049;-85
2022/07/13 09:15:22;;;;;;;11.80;7.32;;;24.90;99.90;;;;;;4969094;28;20050;-85
2022/07/13 09:17:48;;;;;;;11.82;8.55;;;24.90;99.90;;;;;;4965251;28;20035;-86
2022/07/13 09:20:13;;;;;;;11.43;8.65;;;24.90;99.90;;;;;;4971364;28;20061;-88
2022/07/13 09:22:55;;;;;;;10.75;8.07;;;25.00;99.90;;;;;;4971911;28;20043;-88
2022/07/13 09:25:37;;;;;;;10.32;7.00;;;25.00;99.90;;;;;;4971695;28;20142;-88
2022/07/13 09:28:06;;;;;;;10.02;6.65;;;25.10;99.90;;;;;;4970739;28;20928;-87
2022/07/13 09:30:33;;;;;;;10.38;7.22;;;25.20;99.90;;;;;;4972450;28;20432;-85
2022/07/13 09:33:00;;;;;;;9.55;7.22;;;25.20;99.90;;;;;;4970146;28;20376;-85
2022/07/13 09:35:49;;;;;;;8.82;6.25;;;25.20;99.90;;;;;;4953480;28;20043;-86
2022/07/13 09:38:49;;;;;;;10.27;6.93;;;25.30;99.90;;;;;;4953117;28;20082;-85
2022/07/13 09:41:17;;;;;;;10.52;6.90;;;25.30;99.90;;;;;;4969737;28;20047;-86
2022/07/13 09:46:55;;;;;;;10.98;7.97;;;25.40;99.90;;;;;;4970282;28;20051;-87
2022/07/13 09:49:39;;;;;;;9.88;7.75;;;25.30;99.90;;;;;;4971266;28;20490;-87
2022/07/13 09:52:07;;;;;;;9.25;6.40;;;25.40;99.90;;;;;;4952002;28;20047;-87
2022/07/13 09:54:35;;;;;;;11.95;7.03;;;25.50;99.90;;;;;;4970876;28;20047;-87
2022/07/13 09:57:03;;;;;;;10.00;7.55;;;25.50;99.90;;;;;;4953855;28;20058;-86
2022/07/13 09:59:29;;;;;;;9.77;7.38;;;25.60;99.90;;;;;;4972182;28;20042;-87
2022/07/13 10:01:55;;;;;;;11.05;7.00;;;25.60;99.90;;;;;;4971356;28;20079;-88
2022/07/13 10:04:22;;;;;;;9.35;7.00;;;25.70;99.90;;;;;;4971215;28;20113;-87
2022/07/13 10:06:51;;;;;;;9.93;7.22;;;25.80;99.90;;;;;;4971657;28;20043;-84
2022/07/13 10:09:20;;;;;;;8.93;6.35;;;25.90;99.90;;;;;;4967950;28;20046;-86
2022/07/13 10:11:46;;;;;;;9.25;6.25;;;25.90;99.90;;;;;;4969760;28;20055;-86
2022/07/13 10:14:14;;;;;;;10.10;5.90;;;25.90;99.90;;;;;;4968896;28;20069;-87
2022/07/13 10:16:40;;;;;;;10.43;6.85;;;26.00;99.90;;;;;;4970534;28;20046;-86
2022/07/13 10:19:07;;;;;;;9.05;6.28;;;26.10;99.90;;;;;;4970729;28;20043;-86
2022/07/13 10:21:44;;;;;;;9.95;6.47;;;26.20;99.90;;;;;;4970311;28;20051;-89
2022/07/13 10:24:17;;;;;;;10.00;6.15;;;26.30;99.90;;;;;;4971398;28;20042;-88
2022/07/13 10:26:46;;;;;;;8.38;5.75;;;26.50;99.90;;;;;;4971859;28;20508;-89
2022/07/13 10:29:11;;;;;;;8.30;5.05;;;26.50;99.90;;;;;;4969727;28;20053;-92
2022/07/13 10:31:40;;;;;;;10.40;5.10;;;26.70;99.90;;;;;;4970464;28;20043;-86
2022/07/13 10:34:07;;;;;;;10.02;4.20;;;26.70;99.90;;;;;;4964415;28;20098;-85
2022/07/13 10:36:51;;;;;;;8.75;3.83;;;26.70;99.90;;;;;;4957575;28;20046;-88
2022/07/13 10:39:19;;;;;;;7.53;3.20;;;26.70;99.90;;;;;;4970351;28;20074;-88
2022/07/13 10:42:02;;;;;;;6.03;2.83;;;26.70;99.90;;;;;;4970647;28;20050;-87
2022/07/13 10:44:31;;;;;;;5.82;3.10;;;26.70;99.90;;;;;;4965322;28;20046;-89
2022/07/13 10:46:56;;;;;;;5.97;3.10;;;26.50;99.90;;;;;;4969291;28;20047;-87
2022/07/13 10:49:44;;;;;;;6.82;3.25;;;26.50;99.90;;;;;;4968557;28;20042;-91
2022/07/13 10:52:19;;;;;;;8.55;3.13;;;26.50;99.90;;;;;;4970842;28;20050;-86
2022/07/13 10:55:03;;;;;;;7.45;3.25;;;26.50;99.90;;;;;;4983649;28;20090;-88
2022/07/13 10:57:30;;;;;;;6.95;3.58;;;26.50;99.90;;;;;;4971487;28;20047;-90
2022/07/13 11:00:16;;;;;;;7.68;3.30;;;26.40;99.90;;;;;;4969373;28;20047;-87
2022/07/13 11:02:50;;;;;;;8.10;2.88;;;26.50;99.90;;;;;;4969897;28;20062;-88
2022/07/13 11:05:18;;;;;;;7.03;2.97;;;26.50;99.90;;;;;;4967820;28;20043;-89
2022/07/13 11:07:47;;;;;;;5.40;3.17;;;26.50;99.90;;;;;;4971069;28;20081;-94
2022/07/13 11:10:33;;;;;;;5.90;2.80;;;26.50;99.90;;;;;;4972172;28;20046;-93
2022/07/13 11:13:09;;;;;;;6.18;2.75;;;26.50;99.90;;;;;;4969441;28;20050;-90
2022/07/13 11:15:47;;;;;;;5.75;2.63;;;26.40;99.90;;;;;;4954061;28;20491;-91
2022/07/13 11:18:25;;;;;;;6.82;2.80;;;26.50;99.90;;;;;;4953467;28;20344;-89
2022/07/13 11:20:58;;;;;;;5.75;2.67;;;26.50;99.90;;;;;;4968330;28;20047;-93
2022/07/13 11:26:37;;;;;;;5.95;2.55;;;26.50;99.90;;;;;;4971344;28;20091;-88
2022/07/13 11:29:18;;;;;;;5.10;2.63;;;26.30;99.90;;;;;;4970930;28;20051;-91
2022/07/13 11:31:45;;;;;;;7.00;2.80;;;26.50;99.90;;;;;;4969668;28;20173;-90
2022/07/13 11:34:11;;;;;;;5.82;2.42;;;26.50;99.90;;;;;;4968090;28;20404;-89
2022/07/13 11:36:40;;;;;;;4.75;2.45;;;26.70;99.90;;;;;;4970989;28;20046;-90
2022/07/13 11:39:22;;;;;;;5.90;2.63;;;26.80;99.90;;;;;;4970668;28;20051;-89
2022/07/13 11:41:48;;;;;;;4.88;2.55;;;26.90;99.90;;;;;;4970587;28;20695;-90
2022/07/13 11:44:13;;;;;;;6.88;3.08;;;26.90;99.90;;;;;;4971520;28;20050;-91
2022/07/13 11:46:39;;;;;;;6.88;2.88;;;26.90;99.90;;;;;;4971713;28;20093;-92
2022/07/13 11:49:06;;;;;;;6.25;2.95;;;27.10;99.90;;;;;;4968193;28;20055;-92
2022/07/13 11:51:32;;;;;;;5.80;2.80;;;27.10;99.90;;;;;;4969921;28;20047;-89
2022/07/13 11:54:16;;;;;;;7.63;3.00;;;27.10;99.90;;;;;;4969562;28;20043;-90
2022/07/13 11:56:50;;;;;;;6.10;2.63;;;27.20;99.90;;;;;;4969978;28;20058;-90
2022/07/13 11:59:42;;;;;;;5.22;2.55;;;27.30;99.90;;;;;;4970497;28;20447;-94
2022/07/13 12:02:11;;;;;;;6.15;2.83;;;27.20;98.80;;;;;;4969410;28;20716;-92
2022/07/13 12:04:45;;;;;;;4.75;2.75;;;27.20;99.90;;;;;;4968927;28;20035;-91
2022/07/13 12:07:15;;;;;;;5.53;2.63;;;27.20;99.90;;;;;;4970146;28;20053;-89
2022/07/13 12:09:54;;;;;;;4.85;2.50;;;27.30;98.80;;;;;;4971198;28;20440;-92
2022/07/13 12:12:24;;;;;;;6.57;2.67;;;27.30;99.40;;;;;;4971071;28;20047;-94
2022/07/13 12:14:52;;;;;;;6.40;2.80;;;27.30;99.30;;;;;;4969064;28;20043;-90
2022/07/13 12:17:18;;;;;;;5.75;2.45;;;27.30;99.40;;;;;;4970225;28;20043;-88
2022/07/13 12:19:44;;;;;;;5.25;2.63;;;27.30;99.50;;;;;;4967843;28;20050;-90
2022/07/13 12:22:09;;;;;;;5.90;2.42;;;27.30;99.90;;;;;;4970169;28;20055;-90
2022/07/13 12:24:36;;;;;;;5.50;2.78;;;27.30;99.90;;;;;;4970520;28;20042;-93
2022/07/13 12:27:02;;;;;;;6.35;2.78;;;27.20;99.90;;;;;;4969999;28;20073;-93
2022/07/13 12:29:33;;;;;;;6.22;2.50;;;27.10;99.90;;;;;;4971500;28;20131;-89
2022/07/13 12:32:02;;;;;;;6.47;2.60;;;27.10;99.90;;;;;;4967862;28;20051;-96
2022/07/13 12:34:28;;;;;;;4.80;2.30;;;27.10;99.90;;;;;;4970027;28;20051;-91
2022/07/13 12:36:54;;;;;;;6.05;2.72;;;27.20;99.90;;;;;;4969684;28;20419;-91
2022/07/13 12:39:36;;;;;;;6.97;2.80;;;27.10;99.90;;;;;;4971576;28;20046;-90
2022/07/13 12:42:02;;;;;;;6.55;2.80;;;27.10;99.90;;;;;;4956786;28;20055;-90
2022/07/13 12:44:31;;;;;;;5.13;2.70;;;27.20;99.90;;;;;;4975331;28;20047;-91
2022/07/13 12:46:59;;;;;;;6.15;2.80;;;27.20;99.40;;;;;;4972207;28;20042;-89
2022/07/13 12:49:35;;;;;;;6.55;2.80;;;27.10;99.90;;;;;;4972386;28;20050;-89
2022/07/13 12:52:06;;;;;;;7.57;3.00;;;27.00;99.90;;;;;;4972560;28;20087;-92
2022/07/13 12:54:45;;;;;;;6.60;2.78;;;27.00;99.90;;;;;;4956649;28;20070;-91